createdAt,value
2017-08-06T00:07:51.000Z,21
2017-08-06T00:24:38.000Z,21
2017-08-06T00:41:27.000Z,21
2017-08-06T00:58:14.000Z,21
2017-08-06T01:15:01.000Z,20.6
2017-08-06T01:31:48.000Z,20.6
2017-08-06T01:48:36.000Z,20.6
2017-08-06T02:05:23.000Z,20.6
2017-08-06T02:22:10.000Z,20.3
2017-08-06T02:38:57.000Z,20.3
2017-08-06T02:55:44.000Z,20.3
2017-08-06T03:12:31.000Z,20.3
2017-08-06T03:29:18.000Z,20.3
2017-08-06T03:46:04.000Z,20
2017-08-06T04:02:51.000Z,20
2017-08-06T04:19:38.000Z,20
2017-08-06T04:36:25.000Z,20
2017-08-06T04:53:12.000Z,20
2017-08-06T05:09:58.000Z,20.6
2017-08-06T05:13:19.000Z,21.3
2017-08-06T05:30:07.000Z,21.3
2017-08-06T05:46:55.000Z,21.6
2017-08-06T06:03:44.000Z,21.9
2017-08-06T06:20:33.000Z,21.9
2017-08-06T06:37:22.000Z,21.6
2017-08-06T06:54:10.000Z,21.3
2017-08-06T07:27:46.000Z,21
2017-08-06T07:44:34.000Z,21
2017-08-06T08:01:22.000Z,21
2017-08-06T08:18:09.000Z,21.3
2017-08-06T08:34:57.000Z,21.3
2017-08-06T08:51:46.000Z,21.3
2017-08-06T09:08:34.000Z,21.3
2017-08-06T09:25:23.000Z,21.6
2017-08-06T09:42:11.000Z,21.6
2017-08-06T09:59:00.000Z,21.6
2017-08-06T10:15:49.000Z,21.9
2017-08-06T10:32:37.000Z,21.9
2017-08-06T10:49:26.000Z,22.2
2017-08-06T11:06:16.000Z,22.2
2017-08-06T11:21:25.000Z,22.2
2017-08-06T11:38:14.000Z,22.6
2017-08-06T11:55:04.000Z,22.6
2017-08-06T12:11:53.000Z,22.6
2017-08-06T12:28:43.000Z,22.9
2017-08-06T12:45:33.000Z,22.9
2017-08-06T13:02:24.000Z,23.2
2017-08-06T13:19:13.000Z,22.9
2017-08-06T13:36:04.000Z,23.2
2017-08-06T13:52:54.000Z,23.2
2017-08-06T14:09:44.000Z,23.2
2017-08-06T14:26:33.000Z,22.9
2017-08-06T14:43:24.000Z,23.2
2017-08-06T15:00:14.000Z,23.2
2017-08-06T15:17:04.000Z,23.2
2017-08-06T15:33:54.000Z,23.2
2017-08-06T15:50:45.000Z,23.2
2017-08-06T16:07:34.000Z,22.9
2017-08-06T16:24:25.000Z,22.9
2017-08-06T16:41:15.000Z,22.9
2017-08-06T16:58:05.000Z,22.9
2017-08-06T17:14:55.000Z,22.9
2017-08-06T17:31:44.000Z,22.9
2017-08-06T17:48:35.000Z,22.9
2017-08-06T18:05:25.000Z,22.6
2017-08-06T18:22:14.000Z,22.6
2017-08-06T18:39:05.000Z,22.6
2017-08-06T18:55:54.000Z,22.2
2017-08-06T19:12:44.000Z,22.2
2017-08-06T19:29:33.000Z,22.2
2017-08-06T19:46:23.000Z,21.9
2017-08-06T20:03:12.000Z,21.9
2017-08-06T20:20:01.000Z,21.9
2017-08-06T20:36:51.000Z,21.9
2017-08-06T20:53:40.000Z,21.6
2017-08-06T21:10:29.000Z,21.3
2017-08-06T21:27:17.000Z,21.3
2017-08-06T21:44:04.000Z,21
2017-08-06T22:00:53.000Z,21
2017-08-06T22:17:40.000Z,21
2017-08-06T22:34:27.000Z,21
2017-08-06T22:51:15.000Z,21
2017-08-06T23:08:02.000Z,20.6
2017-08-06T23:24:49.000Z,20.6
2017-08-06T23:41:37.000Z,20.3
2017-08-06T23:58:24.000Z,20.3
